Flight Track Log - Related Links

Times and Time Zones

All times are in EDT time to prevent confusion due to time zone crossing. See the DAL1349 flight status page for this flight to view local times or setup timezone preferences in your user account.

Time Position Orientation Groundspeed Altitude Reporting Facility
EDT Latitude Longitude Course Direction KTS MPH feet Rate Location/Type
Sun 01:31:26 PM 40.7714 -111.9969 270° West 155 178 5,200  Level Salt Lake Center
Sun 01:31:42 PM 40.7650 -111.9981 188° South 143 165 5,600 1,091 Climbing Salt Lake Center
Sun 01:32:43 PM 40.7503 -112.0700 255° West 229 264 6,600 1,902 Climbing Salt Lake Center
Sun 01:33:45 PM 40.7825 -112.1678 294° West 288 331 9,500 2,439 Climbing Salt Lake Center
Sun 01:34:00 PM 40.8328 -112.3152 296° West  Level FlightAware Approximate
Sun 01:34:46 PM 40.7847 -112.2756 272° West 306 352 11,600  Level Salt Lake Center
Sun 01:35:00 PM 40.8649 -112.4438 258° West  Level FlightAware Approximate
Sun 01:35:48 PM 40.7672 -112.4058 260° West 355 409 13,600  Level Salt Lake Center
Sun 01:36:00 PM 40.8500 -112.5800 270° West  Level FlightAware Approximate
Sun 01:36:49 PM 40.7494 -112.5378 260° West 364 419 16,800  Level Salt Lake Center
Sun 01:37:50 PM 40.7317 -112.6694 260° West 366 421 18,800 2,293 Climbing Salt Lake Center
Sun 01:38:52 PM 40.7092 -112.8342 260° West 380 437 21,500 2,244 Climbing Salt Lake Center
Sun 01:39:53 PM 40.6897 -112.9719 259° West 387 445 23,400 1,610 Climbing Salt Lake Center
Sun 01:40:55 PM 40.6697 -113.1136 260° West 396 456 24,800 1,415 Climbing Salt Lake Center
Sun 01:41:56 PM 40.6503 -113.2581 260° West 400 460 26,300 1,426 Climbing Salt Lake Center
Sun 01:42:57 PM 40.6283 -113.4053 259° West 408 470 27,700 1,317 Climbing Salt Lake Center
Sun 01:43:59 PM 40.6058 -113.5528 259° West 413 475 29,000 1,317 Climbing Salt Lake Center
Sun 01:45:00 PM 40.5833 -113.7011 259° West 414 476 30,400 1,463 Climbing Salt Lake Center
Sun 01:46:02 PM 40.5619 -113.8492 259° West 413 475 32,000 1,561 Climbing Salt Lake Center
Sun 01:47:03 PM 40.5353 -114.0211 259° West 402 463 33,600 1,366 Climbing Salt Lake Center
Sun 01:48:05 PM 40.5144 -114.1619 259° West 395 455 34,800 683 Climbing Salt Lake Center
Sun 01:49:06 PM 40.4931 -114.3003 259° West 386 444 35,000 98 Climbing Salt Lake Center
Sun 01:50:08 PM 40.4722 -114.4392 259° West 388 447 35,000  Level Salt Lake Center
Sun 01:51:09 PM 40.4506 -114.5789 259° West 391 450 35,000  Level Salt Lake Center
Sun 01:52:11 PM 40.4283 -114.7167 258° West 388 447 35,000  Level Salt Lake Center
Sun 01:53:12 PM 40.4033 -114.8761 258° West 388 447 35,000  Level Salt Lake Center
Sun 01:54:14 PM 40.3817 -115.0097 258° West 390 449 35,000  Level Salt Lake Center
Sun 01:55:16 PM 40.3608 -115.1408 258° West 386 444 35,000  Level Salt Lake Center
Sun 01:56:17 PM 40.3353 -115.2925 258° West 381 438 35,000  Level Salt Lake Center
Sun 01:57:19 PM 40.3169 -115.4206 259° West 376 433 35,000 293 Level Salt Lake Center
Sun 01:58:20 PM 40.2914 -115.5694 257° West 375 432 35,600 488 Climbing Salt Lake Center
Sun 01:59:22 PM 40.2647 -115.6944 254° West 374 430 36,000 195 Climbing Salt Lake Center
Sun 02:00:23 PM 40.2378 -115.8219 255° West 376 433 36,000  Level Salt Lake Center
Sun 02:01:25 PM 40.2139 -115.9706 258° West 374 430 36,000  Level Salt Lake Center
Sun 02:02:27 PM 40.1922 -116.0967 257° West 371 427 36,000  Level Salt Lake Center
Sun 02:03:28 PM 40.1669 -116.2453 257° West 373 429 36,000  Level Salt Lake Center
Sun 02:04:30 PM 40.1453 -116.3717 257° West 372 428 36,000  Level Salt Lake Center
Sun 02:05:32 PM 40.1242 -116.4986 258° West 370 426 36,000  Level Salt Lake Center
Sun 02:06:33 PM 40.0983 -116.6450 257° West 370 426 36,000  Level Salt Lake Center
Sun 02:07:34 PM 40.0758 -116.7731 257° West 374 430 36,000  Level Salt Lake Center
Sun 02:08:36 PM 40.0531 -116.9031 257° West 379 436 36,000  Level Salt Lake Center
Sun 02:09:38 PM 40.0261 -117.0553 257° West 382 440 36,000  Level Salt Lake Center
Sun 02:10:39 PM 40.0025 -117.1858 257° West 383 441 36,000  Level Salt Lake Center
Sun 02:11:41 PM 39.9750 -117.3378 257° West 384 442 36,000  Level Salt Lake Center
Sun 02:12:02 PM 39.9700 -117.3756 260° West 383 441 36,000  Level Oakland Center
Sun 02:13:03 PM 39.9453 -117.5094 256° West 382 440 36,000  Level Oakland Center
Sun 02:14:05 PM 39.9172 -117.6586 256° West 382 440 36,000  Level Oakland Center
Sun 02:15:06 PM 39.8967 -117.7753 257° West 378 435 36,000  Level Oakland Center
Sun 02:16:07 PM 39.8667 -117.9336 256° West 377 434 36,000  Level Oakland Center
Sun 02:17:09 PM 39.8422 -118.0683 257° West 380 437 36,000  Level Oakland Center
Sun 02:18:10 PM 39.8167 -118.2000 256° West 377 434 36,000  Level Oakland Center
Sun 02:19:12 PM 39.7919 -118.3322 256° West 379 436 36,000  Level Oakland Center
Sun 02:20:13 PM 39.7669 -118.4650 256° West 381 438 36,000  Level Oakland Center
Sun 02:21:14 PM 39.7406 -118.5972 255° West 382 440 36,000 -390 Level Oakland Center
Sun 02:22:16 PM 39.7158 -118.7278 256° West 376 433 35,200 -1,073 Descending Oakland Center
Sun 02:23:17 PM 39.6903 -118.8578 256° West 376 433 33,800 -1,561 Descending Oakland Center
Sun 02:24:19 PM 39.6600 -119.0153 256° West 378 435 32,000 -1,512 Descending Oakland Center
Sun 02:25:20 PM 39.6328 -119.1497 255° West 386 444 30,700 -1,131 Descending Oakland Center
Sun 02:26:21 PM 39.6044 -119.2869 255° West 395 455 29,700 -976 Descending Oakland Center
Sun 02:27:23 PM 39.5781 -119.4222 256° West 391 450 28,700 -927 Descending Oakland Center
Sun 02:28:24 PM 39.5525 -119.5553 256° West 386 444 27,800 -927 Descending Oakland Center
Sun 02:29:26 PM 39.5136 -119.6839 249° West 385 443 26,800 -976 Descending Oakland Center
Sun 02:30:27 PM 39.4525 -119.7961 235° Southwest 383 441 25,800 -1,082 Descending Oakland Center
Sun 02:31:28 PM 39.3761 -119.9289 233° Southwest 385 443 24,600 -1,073 Descending Oakland Center
Sun 02:32:30 PM 39.3131 -120.0375 233° Southwest 378 435 23,600 -927 Descending Oakland Center
Sun 02:33:31 PM 39.2561 -120.1353 233° Southwest 364 419 22,700 -927 Descending Oakland Center
Sun 02:34:33 PM 39.1956 -120.2408 234° Southwest 365 420 21,700 -976 Descending Oakland Center
Sun 02:35:34 PM 39.1583 -120.3592 248° West 358 412 20,700 -934 Descending Oakland Center
Sun 02:36:35 PM 39.1275 -120.4778 252° West 351 404 19,800 -976 Descending Oakland Center
Sun 02:37:37 PM 39.0958 -120.5969 251° West 353 406 18,700 -1,024 Descending Oakland Center
Sun 02:38:38 PM 39.0603 -120.7372 252° West 345 397 17,700 -1,561 Descending Oakland Center
Sun 02:39:40 PM 39.0303 -120.8522 251° West 341 392 15,500 -2,049 Descending Oakland Center
Sun 02:40:41 PM 39.0003 -120.9667 251° West 340 391 13,500 -1,820 Descending Oakland Center
Sun 02:41:42 PM 38.9756 -121.0639 252° West 284 327 11,800 -2,188 Descending Oakland Center
Sun 02:42:17 PM 38.9667 -121.1333 261° West 280 322 10,000 -2,716 Descending Northern Cal TRACON
Sun 02:43:17 PM 38.9333 -121.2167 243° Southwest 274 315 7,500 -2,250 Descending Northern Cal TRACON
Sun 02:44:17 PM 38.9167 -121.3167 258° West 271 312 5,500 -2,150 Descending Northern Cal TRACON
Sun 02:45:17 PM 38.8833 -121.4000 243° Southwest 262 302 3,200 -1,316 Descending Northern Cal TRACON
Sun 02:46:11 PM 38.8667 -121.4667 252° West 222 255 3,000 -222 Descending Northern Cal TRACON

Login

Don't have an account? Register now (free) for customized features, flight alerts, and more!